createdAt,value
2017-11-25T00:00:20.418Z,6.02
2017-11-25T00:01:29.880Z,5.95
2017-11-25T00:02:39.867Z,5.98
2017-11-25T00:03:49.585Z,5.98
2017-11-25T00:04:59.568Z,6.07
2017-11-25T00:06:09.545Z,5.97
2017-11-25T00:07:18.997Z,6.12
2017-11-25T00:08:29.052Z,6.13
2017-11-25T00:09:39.013Z,6.09
2017-11-25T00:10:48.468Z,6.01
2017-11-25T00:11:58.450Z,6.15
2017-11-25T00:13:07.630Z,6.16
2017-11-25T00:14:17.354Z,6.16
2017-11-25T00:15:27.327Z,6.16
2017-11-25T00:16:37.296Z,6.19
2017-11-25T00:17:46.747Z,6.16
2017-11-25T00:18:56.196Z,6.15
2017-11-25T00:20:05.640Z,6.15
2017-11-25T00:21:15.613Z,6.17
2017-11-25T00:22:25.335Z,6.1
2017-11-25T00:23:34.786Z,6.19
2017-11-25T00:24:43.964Z,6.15
2017-11-25T00:25:53.676Z,6.13
2017-11-25T00:27:03.666Z,6.15
2017-11-25T00:28:13.103Z,6.13
2017-11-25T00:29:22.859Z,6.2
2017-11-25T00:30:32.580Z,6.15
2017-11-25T00:31:42.305Z,6.12
2017-11-25T00:32:52.009Z,6.17
2017-11-25T00:34:01.471Z,6.17
2017-11-25T00:35:10.928Z,6.2
2017-11-25T00:36:20.898Z,6.19
2017-11-25T00:37:30.868Z,6.19
2017-11-25T00:38:40.317Z,6.22
2017-11-25T00:39:50.282Z,6.31
2017-11-25T00:41:00.265Z,6.29
2017-11-25T00:42:10.226Z,6.34
2017-11-25T00:43:20.190Z,6.28
2017-11-25T00:44:30.176Z,6.36
2017-11-25T00:45:39.627Z,6.25
2017-11-25T00:46:49.333Z,6.32
2017-11-25T00:47:59.400Z,6.16
2017-11-25T00:49:09.391Z,6.22
2017-11-25T00:50:19.101Z,6.34
2017-11-25T00:51:29.068Z,6.28
2017-11-25T00:52:38.513Z,6.28
2017-11-25T00:53:48.217Z,6.19
2017-11-25T00:54:58.180Z,6.29
2017-11-25T00:56:08.148Z,6.16
2017-11-25T00:57:17.880Z,6.19
2017-11-25T00:58:27.892Z,6.28
2017-11-25T00:59:37.910Z,6.28
2017-11-25T01:00:47.894Z,6.25
2017-11-25T01:01:57.612Z,6.19
2017-11-25T01:03:07.333Z,6.17
2017-11-25T01:04:16.784Z,6.17
2017-11-25T01:05:26.228Z,6.16
2017-11-25T01:06:35.673Z,6.15
2017-11-25T01:07:45.652Z,6.15
2017-11-25T01:08:55.618Z,6.22
2017-11-25T01:10:05.597Z,6.28
2017-11-25T01:11:15.572Z,6.19
2017-11-25T01:12:25.275Z,6.28
2017-11-25T01:13:35.258Z,6.26
2017-11-25T01:14:45.242Z,6.29
2017-11-25T01:15:54.964Z,6.15
2017-11-25T01:17:04.420Z,6.15
2017-11-25T01:18:14.150Z,6.15
2017-11-25T01:19:23.872Z,6.19
2017-11-25T01:20:33.841Z,6.12
2017-11-25T01:21:43.285Z,6.02
2017-11-25T01:22:53.262Z,6.12
2017-11-25T01:24:03.242Z,6.12
2017-11-25T01:25:12.990Z,6.07
2017-11-25T01:26:22.183Z,6.1
2017-11-25T01:27:32.154Z,6.06
2017-11-25T01:28:41.870Z,5.99
2017-11-25T01:29:51.842Z,5.99
2017-11-25T01:31:01.568Z,6.02
2017-11-25T01:32:11.284Z,5.97
2017-11-25T01:33:21.244Z,6.05
2017-11-25T01:34:31.228Z,6.1
2017-11-25T01:35:41.186Z,6.12
2017-11-25T01:36:50.901Z,5.98
2017-11-25T01:38:00.880Z,6.06
2017-11-25T01:39:10.591Z,5.99
2017-11-25T01:40:20.304Z,5.98
2017-11-25T01:41:30.267Z,5.99
2017-11-25T01:42:40.257Z,6.01
2017-11-25T01:43:49.440Z,5.99
2017-11-25T01:44:59.424Z,5.95
2017-11-25T01:46:09.392Z,5.98
2017-11-25T01:47:19.100Z,5.95
2017-11-25T01:48:29.093Z,5.99
2017-11-25T01:49:38.797Z,5.95
2017-11-25T01:50:48.501Z,5.95
2017-11-25T01:51:58.513Z,5.95
2017-11-25T01:53:08.518Z,5.95
2017-11-25T01:54:18.230Z,5.9
2017-11-25T01:55:27.945Z,5.88
2017-11-25T01:56:37.652Z,5.88
2017-11-25T01:57:47.096Z,5.88
2017-11-25T01:58:56.831Z,5.9
2017-11-25T02:00:06.829Z,5.87
2017-11-25T02:01:16.268Z,5.87
2017-11-25T02:02:26.236Z,5.88
2017-11-25T02:03:35.424Z,5.88
2017-11-25T02:04:44.914Z,5.87
2017-11-25T02:05:54.617Z,5.8
2017-11-25T02:07:04.093Z,5.8
2017-11-25T02:08:14.065Z,5.92
2017-11-25T02:09:23.520Z,5.9
2017-11-25T02:10:33.500Z,5.83
2017-11-25T02:11:43.472Z,5.8
2017-11-25T02:12:53.446Z,5.87
2017-11-25T02:14:03.419Z,5.84
2017-11-25T02:15:13.406Z,5.92
2017-11-25T02:16:23.134Z,5.92
2017-11-25T02:17:32.586Z,5.91
2017-11-25T02:18:42.292Z,5.91
2017-11-25T02:19:52.025Z,5.87
2017-11-25T02:21:01.473Z,5.83
2017-11-25T02:22:11.448Z,5.81
2017-11-25T02:23:21.413Z,5.87
2017-11-25T02:24:31.374Z,5.87
2017-11-25T02:25:41.350Z,5.79
2017-11-25T02:26:51.070Z,5.87
2017-11-25T02:28:01.037Z,5.8
2017-11-25T02:29:11.028Z,5.77
2017-11-25T02:30:21.020Z,5.8
2017-11-25T02:31:30.995Z,5.83
2017-11-25T02:32:40.976Z,5.83
2017-11-25T02:33:50.672Z,5.87
2017-11-25T02:35:00.117Z,5.87
2017-11-25T02:36:09.824Z,5.83
2017-11-25T02:37:19.793Z,5.87
2017-11-25T02:38:29.532Z,5.88
2017-11-25T02:39:39.280Z,5.84
2017-11-25T02:40:49.263Z,5.76
2017-11-25T02:41:58.990Z,5.87
2017-11-25T02:43:08.254Z,5.9
2017-11-25T02:44:18.274Z,5.91
2017-11-25T02:45:28.000Z,5.84
2017-11-25T02:46:37.715Z,5.81
2017-11-25T02:47:47.680Z,5.91
2017-11-25T02:48:57.664Z,5.95
2017-11-25T02:50:07.110Z,5.95
2017-11-25T02:51:16.819Z,5.92
2017-11-25T02:52:26.508Z,5.97
2017-11-25T02:53:36.222Z,5.92
2017-11-25T02:54:45.945Z,5.84
2017-11-25T02:55:55.663Z,5.87
2017-11-25T02:57:05.116Z,5.91
2017-11-25T02:58:15.083Z,5.8
2017-11-25T02:59:24.797Z,5.81
2017-11-25T03:00:34.496Z,5.73
2017-11-25T03:01:44.518Z,5.84
2017-11-25T03:02:54.216Z,5.79
2017-11-25T03:04:04.213Z,5.72
2017-11-25T03:05:13.918Z,5.83
2017-11-25T03:06:23.880Z,5.76
2017-11-25T03:07:33.589Z,5.72
2017-11-25T03:08:43.579Z,5.72
2017-11-25T03:09:53.554Z,5.74
2017-11-25T03:11:03.273Z,5.74
2017-11-25T03:12:13.264Z,5.79
2017-11-25T03:13:23.227Z,5.8
2017-11-25T03:14:32.680Z,5.8
2017-11-25T03:15:42.661Z,5.7
2017-11-25T03:16:52.372Z,5.8
2017-11-25T03:18:01.808Z,5.83
2017-11-25T03:19:11.535Z,5.87
2017-11-25T03:20:21.504Z,5.88
2017-11-25T03:21:31.215Z,5.8
2017-11-25T03:22:40.414Z,5.88
2017-11-25T03:23:50.400Z,5.84
2017-11-25T03:25:00.354Z,5.91
2017-11-25T03:26:10.318Z,5.9
2017-11-25T03:27:20.308Z,5.84
2017-11-25T03:28:30.011Z,5.9
2017-11-25T03:29:39.725Z,6.01
2017-11-25T03:30:49.181Z,6.06
2017-11-25T03:31:58.669Z,5.99
2017-11-25T03:33:08.134Z,6.06
2017-11-25T03:34:18.128Z,6.12
2017-11-25T03:35:27.586Z,6.01
2017-11-25T03:36:37.035Z,6.15
2017-11-25T03:37:46.490Z,6.06
2017-11-25T03:38:56.204Z,6.15
2017-11-25T03:40:05.909Z,6.17
2017-11-25T03:41:15.354Z,6.15
2017-11-25T03:42:25.330Z,6.16
2017-11-25T03:43:35.046Z,6.2
2017-11-25T03:44:45.013Z,6.22
2017-11-25T03:45:55.039Z,6.31
2017-11-25T03:47:05.004Z,6.29
2017-11-25T03:48:14.712Z,6.25
2017-11-25T03:49:24.696Z,6.29
2017-11-25T03:50:34.148Z,6.31
2017-11-25T03:51:43.851Z,6.32
2017-11-25T03:52:53.560Z,6.32
2017-11-25T03:54:03.259Z,6.36
2017-11-25T03:55:13.233Z,6.35
2017-11-25T03:56:22.428Z,6.39
2017-11-25T03:57:32.139Z,6.36
2017-11-25T03:58:41.859Z,6.35
2017-11-25T03:59:51.561Z,6.39
2017-11-25T04:01:00.476Z,6.38
2017-11-25T04:02:10.454Z,6.34
2017-11-25T04:03:19.643Z,6.39
2017-11-25T04:04:29.854Z,6.47
2017-11-25T04:05:39.339Z,6.52
2017-11-25T04:06:49.050Z,6.36
2017-11-25T04:07:59.034Z,6.34
2017-11-25T04:09:08.737Z,6.41
2017-11-25T04:10:18.445Z,6.46
2017-11-25T04:11:28.139Z,6.41
2017-11-25T04:12:37.859Z,6.35
2017-11-25T04:13:47.555Z,6.41
2017-11-25T04:14:57.005Z,6.36
2017-11-25T04:16:07.475Z,6.39
2017-11-25T04:17:17.178Z,6.38
2017-11-25T04:18:26.877Z,6.43
2017-11-25T04:19:36.843Z,6.43
2017-11-25T04:20:46.567Z,6.38
2017-11-25T04:21:56.558Z,6.44
2017-11-25T04:23:06.278Z,6.44
2017-11-25T04:24:15.456Z,6.47
2017-11-25T04:25:25.175Z,6.38
2017-11-25T04:26:35.156Z,6.44
2017-11-25T04:27:44.854Z,6.52
2017-11-25T04:28:54.568Z,6.49
2017-11-25T04:30:04.532Z,6.47
2017-11-25T04:31:14.492Z,6.47
2017-11-25T04:32:24.208Z,6.56
2017-11-25T04:33:34.182Z,6.52
2017-11-25T04:34:44.154Z,6.49
2017-11-25T04:35:54.139Z,6.38
2017-11-25T04:37:03.857Z,6.44
2017-11-25T04:38:13.583Z,6.54
2017-11-25T04:39:23.292Z,6.53
2017-11-25T04:40:33.260Z,6.44
2017-11-25T04:41:43.231Z,6.46
2017-11-25T04:42:53.191Z,6.49
2017-11-25T04:44:03.182Z,6.5
2017-11-25T04:45:13.157Z,6.39
2017-11-25T04:46:22.608Z,6.41
2017-11-25T04:47:32.576Z,6.41
2017-11-25T04:48:42.049Z,6.38
2017-11-25T04:49:51.763Z,6.35
2017-11-25T04:51:01.740Z,6.39
2017-11-25T04:52:11.745Z,6.35
2017-11-25T04:53:21.729Z,6.41
2017-11-25T04:54:31.445Z,6.34
2017-11-25T04:55:41.168Z,6.35
2017-11-25T04:56:51.130Z,6.31
2017-11-25T04:58:00.568Z,6.32
2017-11-25T04:59:10.546Z,6.32
2017-11-25T05:00:20.261Z,6.35
2017-11-25T05:01:30.242Z,6.35
2017-11-25T05:02:39.424Z,6.29
2017-11-25T05:03:49.136Z,6.36
2017-11-25T05:04:58.847Z,6.36
2017-11-25T05:06:08.038Z,6.35
2017-11-25T05:07:18.005Z,6.36
2017-11-25T05:08:27.980Z,6.36
2017-11-25T05:09:37.978Z,6.38
2017-11-25T05:10:47.421Z,6.31
2017-11-25T05:11:57.135Z,6.31
2017-11-25T05:13:07.103Z,6.35
2017-11-25T05:14:17.073Z,6.39
2017-11-25T05:15:26.524Z,6.38
2017-11-25T05:16:35.961Z,6.31
2017-11-25T05:17:45.671Z,6.31
2017-11-25T05:18:55.636Z,6.31
2017-11-25T05:20:05.604Z,6.41
2017-11-25T05:21:15.313Z,6.39
2017-11-25T05:22:24.777Z,6.41
2017-11-25T05:23:34.220Z,6.32
2017-11-25T05:24:44.183Z,6.34
2017-11-25T05:25:53.634Z,6.32
2017-11-25T05:27:03.599Z,6.31
2017-11-25T05:28:13.584Z,6.28
2017-11-25T05:29:23.307Z,6.31
2017-11-25T05:30:33.263Z,6.34
2017-11-25T05:31:42.983Z,6.29
2017-11-25T05:32:52.678Z,6.34
2017-11-25T05:34:02.129Z,6.31
2017-11-25T05:35:11.867Z,6.29
2017-11-25T05:36:21.843Z,6.38
2017-11-25T05:37:31.835Z,6.35
2017-11-25T05:38:41.809Z,6.34
2017-11-25T05:39:51.783Z,6.39
2017-11-25T05:41:01.494Z,6.36
2017-11-25T05:42:11.199Z,6.39
2017-11-25T05:43:21.161Z,6.38
2017-11-25T05:44:31.133Z,6.38
2017-11-25T05:45:40.575Z,6.36
2017-11-25T05:46:50.535Z,6.39
2017-11-25T05:48:00.500Z,6.39
2017-11-25T05:49:10.471Z,6.36
2017-11-25T05:50:20.185Z,6.35
2017-11-25T05:51:29.926Z,6.36
2017-11-25T05:52:39.890Z,6.39
2017-11-25T05:53:49.869Z,6.29
2017-11-25T05:54:59.834Z,6.35
2017-11-25T05:56:09.547Z,6.41
2017-11-25T05:57:19.257Z,6.26
2017-11-25T05:58:28.709Z,6.28
2017-11-25T05:59:38.681Z,6.32
2017-11-25T06:00:48.664Z,6.29
2017-11-25T06:01:58.638Z,6.19
2017-11-25T06:03:08.613Z,6.29
2017-11-25T06:04:17.797Z,6.29
2017-11-25T06:05:27.513Z,6.32
2017-11-25T06:06:36.952Z,6.26
2017-11-25T06:07:46.661Z,6.32
2017-11-25T06:08:56.703Z,6.29
2017-11-25T06:10:06.670Z,6.25
2017-11-25T06:11:16.369Z,6.28
2017-11-25T06:12:25.820Z,6.31
2017-11-25T06:13:35.268Z,6.26
2017-11-25T06:14:45.240Z,6.28
2017-11-25T06:15:54.682Z,6.28
2017-11-25T06:17:04.389Z,6.29
2017-11-25T06:18:14.098Z,6.32
2017-11-25T06:19:23.797Z,6.38
2017-11-25T06:20:33.499Z,6.34
2017-11-25T06:21:42.939Z,6.29
2017-11-25T06:22:52.906Z,6.36
2017-11-25T06:24:02.883Z,6.22
2017-11-25T06:25:12.844Z,6.39
2017-11-25T06:26:22.553Z,6.34
2017-11-25T06:27:32.256Z,6.31
2017-11-25T06:28:42.222Z,6.22
2017-11-25T06:29:51.676Z,6.32
2017-11-25T06:31:01.385Z,6.38
2017-11-25T06:32:11.372Z,6.34
2017-11-25T06:33:20.809Z,6.35
2017-11-25T06:34:30.769Z,6.34
2017-11-25T06:35:40.469Z,6.38
2017-11-25T06:36:49.917Z,6.38
2017-11-25T06:37:59.366Z,6.34
2017-11-25T06:39:09.076Z,6.29
2017-11-25T06:40:18.518Z,6.32
2017-11-25T06:41:28.217Z,6.29
2017-11-25T06:42:38.229Z,6.2
2017-11-25T06:43:47.926Z,6.19
2017-11-25T06:44:57.896Z,6.26
2017-11-25T06:46:07.860Z,6.25
2017-11-25T06:47:17.916Z,6.25
2017-11-25T06:48:27.892Z,6.25
2017-11-25T06:49:37.602Z,6.26
2017-11-25T06:50:47.313Z,6.28
2017-11-25T06:51:56.762Z,6.31
2017-11-25T06:53:05.944Z,6.29
2017-11-25T06:54:15.656Z,6.32
2017-11-25T06:55:25.636Z,6.29
2017-11-25T06:56:35.347Z,6.29
2017-11-25T06:57:44.265Z,6.26
2017-11-25T06:58:54.253Z,6.31
2017-11-25T07:00:03.444Z,6.32
2017-11-25T07:01:13.145Z,6.25
2017-11-25T07:02:23.129Z,6.31
2017-11-25T07:03:33.124Z,6.17
2017-11-25T07:04:43.098Z,6.29
2017-11-25T07:05:53.058Z,6.29
2017-11-25T07:07:03.029Z,6.29
2017-11-25T07:08:13.033Z,6.26
2017-11-25T07:09:22.755Z,6.31
2017-11-25T07:10:32.470Z,6.29
2017-11-25T07:11:42.198Z,6.26
2017-11-25T07:12:52.178Z,6.26
2017-11-25T07:14:02.147Z,6.22
2017-11-25T07:15:11.902Z,6.28
2017-11-25T07:16:21.879Z,6.26
2017-11-25T07:17:31.838Z,6.34
2017-11-25T07:18:41.808Z,6.32
2017-11-25T07:19:51.543Z,6.31
2017-11-25T07:21:01.529Z,6.38
2017-11-25T07:22:11.243Z,6.35
2017-11-25T07:23:21.210Z,6.31
2017-11-25T07:24:30.653Z,6.35
2017-11-25T07:25:39.836Z,6.31
2017-11-25T07:26:50.055Z,6.31
2017-11-25T07:28:00.026Z,6.31
2017-11-25T07:29:09.467Z,6.25
2017-11-25T07:30:19.181Z,6.29
2017-11-25T07:31:28.926Z,6.32
2017-11-25T07:32:38.894Z,6.34
2017-11-25T07:33:48.602Z,6.28
2017-11-25T07:34:58.581Z,6.32
2017-11-25T07:36:08.292Z,6.31
2017-11-25T07:37:18.262Z,6.28
2017-11-25T07:38:28.247Z,6.38
2017-11-25T07:39:38.204Z,6.31
2017-11-25T07:40:47.925Z,6.36
2017-11-25T07:41:57.887Z,6.32
2017-11-25T07:43:07.860Z,6.29
2017-11-25T07:44:17.568Z,6.28
2017-11-25T07:45:27.286Z,6.25
2017-11-25T07:46:37.253Z,6.31
2017-11-25T07:47:46.726Z,6.26
2017-11-25T07:48:56.181Z,6.28
2017-11-25T07:50:05.888Z,6.32
2017-11-25T07:51:15.061Z,6.31
2017-11-25T07:52:25.055Z,6.32
2017-11-25T07:53:35.038Z,6.32
2017-11-25T07:54:44.496Z,6.28
2017-11-25T07:55:53.939Z,6.35
2017-11-25T07:57:03.668Z,6.39
2017-11-25T07:58:14.206Z,6.35
2017-11-25T07:59:23.934Z,6.35
2017-11-25T08:00:33.906Z,6.28
2017-11-25T08:01:43.616Z,6.34
2017-11-25T08:02:53.587Z,6.31
2017-11-25T08:04:03.063Z,6.31
2017-11-25T08:05:12.761Z,6.34
2017-11-25T08:06:22.205Z,6.38
2017-11-25T08:07:31.905Z,6.22
2017-11-25T08:08:41.885Z,6.35
2017-11-25T08:09:51.845Z,6.38
2017-11-25T08:11:01.302Z,6.35
2017-11-25T08:12:11.003Z,6.25
2017-11-25T08:13:20.709Z,6.28
2017-11-25T08:14:30.681Z,6.26
2017-11-25T08:15:40.386Z,6.34
2017-11-25T08:16:49.824Z,6.26
2017-11-25T08:17:59.547Z,6.25
2017-11-25T08:19:09.517Z,6.13
2017-11-25T08:20:18.964Z,6.13
2017-11-25T08:21:28.936Z,6.17
2017-11-25T08:22:38.919Z,6.15
2017-11-25T08:23:48.889Z,6.16
2017-11-25T08:24:58.610Z,6.12
2017-11-25T08:26:08.072Z,6.12
2017-11-25T08:27:17.788Z,6.13
2017-11-25T08:28:27.799Z,6.16
2017-11-25T08:29:37.505Z,6.2
2017-11-25T08:30:47.205Z,6.13
2017-11-25T08:31:57.193Z,6.19
2017-11-25T08:33:06.655Z,6.17
2017-11-25T08:34:16.363Z,6.02
2017-11-25T08:35:26.368Z,6.13
2017-11-25T08:36:35.814Z,6.09
2017-11-25T08:37:45.794Z,6.16
2017-11-25T08:38:55.761Z,6.15
2017-11-25T08:40:05.735Z,6.17
2017-11-25T08:41:15.738Z,6.15
2017-11-25T08:42:25.710Z,6.12
2017-11-25T08:43:35.725Z,6.12
2017-11-25T08:44:45.438Z,6.09
2017-11-25T08:45:55.412Z,6.07
2017-11-25T08:47:04.856Z,5.97
2017-11-25T08:48:14.576Z,6.1
2017-11-25T08:49:24.561Z,6.09
2017-11-25T08:50:34.013Z,6.16
2017-11-25T08:51:43.729Z,6.13
2017-11-25T08:52:53.441Z,6.15
2017-11-25T08:54:02.636Z,6.15
2017-11-25T08:55:12.346Z,6.15
2017-11-25T08:56:22.075Z,6.12
2017-11-25T08:57:32.032Z,6.16
2017-11-25T08:58:42.020Z,6.12
2017-11-25T08:59:51.738Z,6.17
2017-11-25T09:01:01.450Z,6.16
2017-11-25T09:02:11.161Z,6.16
2017-11-25T09:03:20.598Z,6.13
2017-11-25T09:04:30.574Z,6.15
2017-11-25T09:05:40.555Z,6.09
2017-11-25T09:06:50.255Z,6.09
2017-11-25T09:08:00.230Z,6.12
2017-11-25T09:09:10.228Z,6.15
2017-11-25T09:10:19.930Z,6.16
2017-11-25T09:11:29.655Z,6.15
2017-11-25T09:12:39.376Z,6.2
2017-11-25T09:13:49.074Z,6.17
2017-11-25T09:14:59.061Z,6.16
2017-11-25T09:16:09.036Z,6.1
2017-11-25T09:17:18.478Z,6.12
2017-11-25T09:18:28.456Z,6.12
2017-11-25T09:19:37.897Z,6.07
2017-11-25T09:20:47.872Z,6.13
2017-11-25T09:21:57.316Z,6.05
2017-11-25T09:23:07.027Z,6.06
2017-11-25T09:24:17.001Z,6.1
2017-11-25T09:25:26.980Z,6.15
2017-11-25T09:26:36.695Z,6.06
2017-11-25T09:27:46.418Z,6.05
2017-11-25T09:28:56.125Z,6.06
2017-11-25T09:30:05.848Z,5.99
2017-11-25T09:31:15.858Z,5.98
2017-11-25T09:32:25.837Z,5.98
2017-11-25T09:33:35.825Z,6.07
2017-11-25T09:34:45.030Z,6.05
2017-11-25T09:35:55.019Z,6.07
2017-11-25T09:37:04.989Z,6.07
2017-11-25T09:38:14.974Z,6.05
2017-11-25T09:39:24.424Z,6.1
2017-11-25T09:40:34.384Z,6.19
2017-11-25T09:41:44.388Z,6.09
2017-11-25T09:42:54.134Z,6.13
2017-11-25T09:44:04.116Z,6.19
2017-11-25T09:45:13.556Z,6.12
2017-11-25T09:46:23.257Z,6.15
2017-11-25T09:47:32.960Z,6.07
2017-11-25T09:48:42.940Z,6.1
2017-11-25T09:49:52.680Z,6.13
2017-11-25T09:51:02.441Z,6.15
2017-11-25T09:52:12.422Z,6.12
2017-11-25T09:53:22.398Z,6.06
2017-11-25T09:54:32.113Z,6.1
2017-11-25T09:55:41.560Z,6.09
2017-11-25T09:56:51.266Z,6.07
2017-11-25T09:58:00.715Z,6.13
2017-11-25T09:59:10.432Z,6.1
2017-11-25T10:00:20.420Z,6.12
2017-11-25T10:01:29.879Z,6.09
2017-11-25T10:02:39.589Z,6.13
2017-11-25T10:03:49.041Z,6.13
2017-11-25T10:04:59.023Z,6.1
2017-11-25T10:06:08.477Z,6.1
2017-11-25T10:07:18.203Z,6.15
2017-11-25T10:08:27.646Z,6.16
2017-11-25T10:09:37.336Z,6.1
2017-11-25T10:10:46.781Z,6.12
2017-11-25T10:11:55.976Z,6.16
2017-11-25T10:13:05.999Z,6.12
2017-11-25T10:14:15.723Z,6.07
2017-11-25T10:15:25.737Z,6.12
2017-11-25T10:16:35.455Z,6.07
2017-11-25T10:17:45.440Z,6.15
2017-11-25T10:18:54.900Z,6.09
2017-11-25T10:20:04.600Z,6.12
2017-11-25T10:21:14.305Z,6.09
2017-11-25T10:22:23.759Z,6.1
2017-11-25T10:23:33.194Z,6.09
2017-11-25T10:24:42.375Z,6.05
2017-11-25T10:25:52.085Z,6.07
2017-11-25T10:27:02.081Z,5.95
2017-11-25T10:28:11.552Z,5.98
2017-11-25T10:29:21.276Z,5.98
2017-11-25T10:30:30.761Z,5.95
2017-11-25T10:31:40.740Z,5.88
2017-11-25T10:32:50.442Z,5.92
2017-11-25T10:34:00.169Z,5.87
2017-11-25T10:35:10.141Z,5.87
2017-11-25T10:36:20.101Z,5.8
2017-11-25T10:37:29.868Z,5.8
2017-11-25T10:38:39.317Z,5.81
2017-11-25T10:39:49.043Z,5.81
2017-11-25T10:40:58.745Z,5.84
2017-11-25T10:42:08.468Z,5.73
2017-11-25T10:43:18.438Z,5.74
2017-11-25T10:44:28.152Z,5.76
2017-11-25T10:45:37.884Z,5.76
2017-11-25T10:46:47.591Z,5.84
2017-11-25T10:47:57.042Z,5.77
2017-11-25T10:49:06.736Z,5.73
2017-11-25T10:50:16.183Z,5.79
2017-11-25T10:51:25.893Z,5.67
2017-11-25T10:52:35.598Z,5.62
2017-11-25T10:53:45.587Z,5.7
2017-11-25T10:54:55.046Z,5.76
2017-11-25T10:56:04.755Z,5.58
2017-11-25T10:57:14.754Z,5.69
2017-11-25T10:58:24.739Z,5.7
2017-11-25T10:59:34.714Z,5.72
2017-11-25T11:00:44.431Z,5.65
2017-11-25T11:01:54.429Z,5.65
2017-11-25T11:03:03.897Z,5.69
2017-11-25T11:04:13.089Z,5.61
2017-11-25T11:05:22.548Z,5.61
2017-11-25T11:06:32.252Z,5.55
2017-11-25T11:07:41.978Z,5.59
2017-11-25T11:08:51.952Z,5.58
2017-11-25T11:10:01.932Z,5.58
2017-11-25T11:11:11.696Z,5.55
2017-11-25T11:12:21.408Z,5.56
2017-11-25T11:13:31.374Z,5.49
2017-11-25T11:14:41.083Z,5.58
2017-11-25T11:15:50.538Z,5.58
2017-11-25T11:17:00.268Z,5.58
2017-11-25T11:18:10.005Z,5.59
2017-11-25T11:19:19.966Z,5.47
2017-11-25T11:20:29.938Z,5.58
2017-11-25T11:21:39.965Z,5.58
2017-11-25T11:22:49.933Z,5.55
2017-11-25T11:23:59.910Z,5.54
2017-11-25T11:25:09.642Z,5.59
2017-11-25T11:26:19.092Z,5.56
2017-11-25T11:27:29.073Z,5.51
2017-11-25T11:28:38.796Z,5.52
2017-11-25T11:29:48.533Z,5.47
2017-11-25T11:30:58.512Z,5.33
2017-11-25T11:32:08.226Z,5.36
2017-11-25T11:33:17.952Z,5.34
2017-11-25T11:34:27.677Z,5.37
2017-11-25T11:35:37.417Z,5.4
2017-11-25T11:36:47.401Z,5.34
2017-11-25T11:37:57.374Z,5.36
2017-11-25T11:39:07.100Z,5.19
2017-11-25T11:40:16.810Z,5.19
2017-11-25T11:41:26.541Z,5.18
2017-11-25T11:42:36.532Z,5.12
2017-11-25T11:43:46.506Z,4.98
2017-11-25T11:44:55.950Z,5.01
2017-11-25T11:46:05.397Z,5.02
2017-11-25T11:47:15.112Z,5.02
2017-11-25T11:48:24.845Z,4.98
2017-11-25T11:49:34.835Z,5.05
2017-11-25T11:50:44.557Z,5.02
2017-11-25T11:51:54.537Z,4.94
2017-11-25T11:53:04.771Z,5
2017-11-25T11:54:14.815Z,5
2017-11-25T11:55:24.537Z,4.9
2017-11-25T11:56:34.264Z,4.89
2017-11-25T11:57:44.231Z,4.76
2017-11-25T11:58:54.207Z,4.75
2017-11-25T12:00:04.194Z,4.71
2017-11-25T12:01:13.370Z,4.78
2017-11-25T12:02:22.835Z,4.7
2017-11-25T12:03:32.803Z,4.7
2017-11-25T12:04:42.768Z,4.64
2017-11-25T12:05:52.471Z,4.68
2017-11-25T12:07:02.186Z,4.66
2017-11-25T12:08:11.891Z,4.61
2017-11-25T12:09:21.861Z,4.58
2017-11-25T12:10:31.850Z,4.49
2017-11-25T12:11:41.555Z,4.56
2017-11-25T12:12:51.258Z,4.39
2017-11-25T12:14:01.242Z,4.25
2017-11-25T12:15:10.447Z,4.18
2017-11-25T12:16:19.892Z,4.18
2017-11-25T12:17:29.348Z,4.16
2017-11-25T12:18:39.342Z,4.18
2017-11-25T12:19:49.067Z,4.16
2017-11-25T12:20:58.792Z,4.13
2017-11-25T12:22:08.271Z,4.1
2017-11-25T12:23:17.728Z,4.07
2017-11-25T12:24:27.696Z,4.07
2017-11-25T12:25:37.671Z,4
2017-11-25T12:26:47.687Z,3.95
2017-11-25T12:27:57.659Z,4.04
2017-11-25T12:29:07.115Z,4
2017-11-25T12:30:16.836Z,3.94
2017-11-25T12:31:26.562Z,3.99
2017-11-25T12:32:36.527Z,3.96
2017-11-25T12:33:46.520Z,3.95
2017-11-25T12:34:56.236Z,3.94
2017-11-25T12:36:05.676Z,3.89
2017-11-25T12:37:15.721Z,3.78
2017-11-25T12:38:25.738Z,3.81
2017-11-25T12:39:35.706Z,3.86
2017-11-25T12:40:45.165Z,3.89
2017-11-25T12:41:54.873Z,3.84
2017-11-25T12:43:04.326Z,3.91
2017-11-25T12:44:14.043Z,3.86
2017-11-25T12:45:23.776Z,3.81
2017-11-25T12:46:33.490Z,3.68
2017-11-25T12:47:43.215Z,3.71
2017-11-25T12:48:52.928Z,3.71
2017-11-25T12:50:02.917Z,3.67
2017-11-25T12:51:12.893Z,3.68
2017-11-25T12:52:22.608Z,3.7
2017-11-25T12:53:32.333Z,3.7
2017-11-25T12:54:42.058Z,3.71
2017-11-25T12:55:51.780Z,3.71
2017-11-25T12:57:00.859Z,3.74
2017-11-25T12:58:10.573Z,3.71
2017-11-25T12:59:20.283Z,3.71
2017-11-25T13:00:30.245Z,3.7
2017-11-25T13:01:40.233Z,3.64
2017-11-25T13:02:50.221Z,3.68
2017-11-25T13:04:00.188Z,3.73
2017-11-25T13:05:10.166Z,3.71
2017-11-25T13:06:19.616Z,3.73
2017-11-25T13:07:29.339Z,3.64
2017-11-25T13:08:39.051Z,3.68
2017-11-25T13:09:48.775Z,3.68
2017-11-25T13:10:58.514Z,3.64
2017-11-25T13:12:08.505Z,3.66
2017-11-25T13:13:18.210Z,3.66
2017-11-25T13:14:28.189Z,3.59
2017-11-25T13:15:37.649Z,3.66
2017-11-25T13:16:47.619Z,3.64
2017-11-25T13:17:57.340Z,3.7
2017-11-25T13:19:07.307Z,3.59
2017-11-25T13:20:17.027Z,3.59
2017-11-25T13:21:27.002Z,3.61
2017-11-25T13:22:36.444Z,3.58
2017-11-25T13:23:46.156Z,3.49
2017-11-25T13:24:55.873Z,3.5
2017-11-25T13:26:05.331Z,3.56
2017-11-25T13:27:15.314Z,3.48
2017-11-25T13:28:24.751Z,3.52
2017-11-25T13:29:34.733Z,3.49
2017-11-25T13:30:44.711Z,3.59
2017-11-25T13:31:54.421Z,3.58
2017-11-25T13:33:04.406Z,3.58
2017-11-25T13:34:14.386Z,3.48
2017-11-25T13:35:24.356Z,3.48
2017-11-25T13:36:34.315Z,3.53
2017-11-25T13:37:44.031Z,3.43
2017-11-25T13:38:54.003Z,3.5
2017-11-25T13:40:03.988Z,3.37
2017-11-25T13:41:13.706Z,3.37
2017-11-25T13:42:23.677Z,3.34
2017-11-25T13:43:33.383Z,3.33
2017-11-25T13:44:43.076Z,3.37
2017-11-25T13:45:52.797Z,3.36
2017-11-25T13:47:02.784Z,3.46
2017-11-25T13:48:12.516Z,3.36
2017-11-25T13:49:21.953Z,3.33
2017-11-25T13:50:31.409Z,3.36
2017-11-25T13:51:41.140Z,3.41
2017-11-25T13:52:51.128Z,3.41
2017-11-25T13:54:00.313Z,3.58
2017-11-25T13:55:10.300Z,3.56
2017-11-25T13:56:20.013Z,3.52
2017-11-25T13:57:29.995Z,3.52
2017-11-25T13:58:39.436Z,3.46
2017-11-25T13:59:49.135Z,3.46
2017-11-25T14:00:59.110Z,3.49
2017-11-25T14:02:09.086Z,3.52
2017-11-25T14:03:18.788Z,3.45
2017-11-25T14:04:28.511Z,3.37
2017-11-25T14:05:38.235Z,3.37
2017-11-25T14:06:48.227Z,3.34
2017-11-25T14:07:58.195Z,3.36
2017-11-25T14:09:07.918Z,3.3
2017-11-25T14:10:17.671Z,3.31
2017-11-25T14:11:27.663Z,3.27
2017-11-25T14:12:37.158Z,3.34
2017-11-25T14:13:46.880Z,3.31
2017-11-25T14:14:56.590Z,3.3
2017-11-25T14:16:06.566Z,3.29
2017-11-25T14:17:16.539Z,3.24
2017-11-25T14:18:26.235Z,3.33
2017-11-25T14:19:36.220Z,3.31
2017-11-25T14:20:46.192Z,3.31
2017-11-25T14:21:55.648Z,3.31
2017-11-25T14:23:05.372Z,3.31
2017-11-25T14:24:15.340Z,3.29
2017-11-25T14:25:25.057Z,3.31
2017-11-25T14:26:34.512Z,3.3
2017-11-25T14:27:43.958Z,3.34
2017-11-25T14:28:53.393Z,3.24
2017-11-25T14:30:03.107Z,3.18
2017-11-25T14:31:12.573Z,3.22
2017-11-25T14:32:22.280Z,3.19
2017-11-25T14:33:31.721Z,3.09
2017-11-25T14:34:41.701Z,3.12
2017-11-25T14:35:51.706Z,3.12
2017-11-25T14:37:01.167Z,3.21
2017-11-25T14:38:10.881Z,3.12
2017-11-25T14:39:20.055Z,3.13
2017-11-25T14:40:29.506Z,3.06
2017-11-25T14:41:39.237Z,3.01
2017-11-25T14:42:49.212Z,3.06
2017-11-25T14:43:58.932Z,3.01
2017-11-25T14:45:08.937Z,3.01
2017-11-25T14:46:18.648Z,3.08
2017-11-25T14:47:28.384Z,3.12
2017-11-25T14:48:38.084Z,3.08
2017-11-25T14:49:48.057Z,3.13
2017-11-25T14:50:57.255Z,3.11
2017-11-25T14:52:06.964Z,3.06
2017-11-25T14:53:16.929Z,3.03
2017-11-25T14:54:26.903Z,3.11
2017-11-25T14:55:36.603Z,3
2017-11-25T14:56:46.583Z,3.03
2017-11-25T14:57:56.313Z,3.03
2017-11-25T14:59:06.278Z,3
2017-11-25T15:00:15.995Z,2.95
2017-11-25T15:01:25.977Z,2.95
2017-11-25T15:02:35.958Z,2.94
2017-11-25T15:03:45.675Z,2.97
2017-11-25T15:04:55.642Z,2.93
2017-11-25T15:06:05.622Z,2.97
2017-11-25T15:07:15.081Z,2.95
2017-11-25T15:08:25.052Z,2.9
2017-11-25T15:09:34.749Z,2.94
2017-11-25T15:10:44.477Z,2.98
2017-11-25T15:11:54.181Z,2.93
2017-11-25T15:13:04.159Z,2.88
2017-11-25T15:14:13.875Z,2.83
2017-11-25T15:15:23.577Z,2.82
2017-11-25T15:16:33.290Z,2.83
2017-11-25T15:17:43.263Z,2.88
2017-11-25T15:18:52.959Z,2.85
2017-11-25T15:20:02.669Z,2.85
2017-11-25T15:21:12.380Z,2.82
2017-11-25T15:22:22.087Z,2.87
2017-11-25T15:23:32.062Z,2.85
2017-11-25T15:24:42.052Z,2.8
2017-11-25T15:25:51.246Z,2.7
2017-11-25T15:27:01.218Z,2.76
2017-11-25T15:28:10.407Z,2.75
2017-11-25T15:29:20.178Z,2.77
2017-11-25T15:30:30.163Z,2.69
2017-11-25T15:31:39.869Z,2.79